LFQB 241300Z AUTO 30007KT 260V350 CAVOK 23/11 Q1016

ElémentsDécodage
LFQB Station météo située sur l'aérodrome de TROYES Barberey
241300Z émis le 24 du mois à 13h00 UTC
AUTO Bulletin édité par un automate
30007KT vent du 300°, 07 noeuds
260V350 vent de direction variable entre 260° et 350°
CAVOK Ceiling And Visibility OK
- Visibilité de 10 Km ou plus
- Pas de nuage au-dessous de 1500m ou au-dessous de l'altitude minimale du secteur la plus élevée (si>1500m) et absence de CB
- pas de temps présent significatif
23/11 température 23°C, point de rosée 11°C
 soit une humidité relative de 47%
Q1016 la pression au niveau de la mer (QNH) est de 1016 hPa